createdAt,value
2018-03-25T00:01:12.147Z,16.40
2018-03-25T00:03:41.268Z,15.40
2018-03-25T00:06:10.345Z,15.87
2018-03-25T00:08:43.245Z,15.40
2018-03-25T00:11:11.476Z,16.10
2018-03-25T00:13:39.792Z,15.73
2018-03-25T00:16:08.027Z,16.20
2018-03-25T00:18:36.297Z,15.00
2018-03-25T00:21:04.561Z,15.73
2018-03-25T00:23:32.813Z,15.47
2018-03-25T00:26:01.095Z,16.23
2018-03-25T00:28:29.558Z,15.73
2018-03-25T00:30:57.785Z,15.60
2018-03-25T00:33:27.237Z,16.33
2018-03-25T00:35:59.154Z,15.90
2018-03-25T00:38:27.451Z,15.97
2018-03-25T00:40:56.638Z,15.13
2018-03-25T00:43:25.059Z,15.33
2018-03-25T00:45:53.367Z,14.70
2018-03-25T00:48:23.156Z,15.10
2018-03-25T00:50:52.739Z,15.90
2018-03-25T00:53:23.842Z,16.10
2018-03-25T00:55:52.101Z,14.67
2018-03-25T00:58:20.412Z,14.87
2018-03-25T01:00:49.479Z,16.63
2018-03-25T01:03:17.788Z,15.57
2018-03-25T01:05:46.869Z,13.50
2018-03-25T01:08:15.145Z,16.03
2018-03-25T01:10:44.970Z,16.00
2018-03-25T01:13:13.300Z,16.03
2018-03-25T01:15:53.679Z,15.17
2018-03-25T01:18:21.970Z,15.33
2018-03-25T01:20:51.017Z,15.87
2018-03-25T01:23:19.277Z,16.03
2018-03-25T01:25:47.544Z,14.83
2018-03-25T01:28:15.876Z,17.07
2018-03-25T01:30:44.172Z,14.87
2018-03-25T01:33:12.420Z,16.23
2018-03-25T01:35:40.690Z,16.33
2018-03-25T01:38:08.971Z,16.60
2018-03-25T01:40:37.222Z,16.50
2018-03-25T01:43:05.544Z,15.73
2018-03-25T01:45:34.579Z,16.27
2018-03-25T01:48:02.833Z,15.87
2018-03-25T01:50:31.872Z,17.37
2018-03-25T01:53:01.183Z,15.53
2018-03-25T01:55:29.457Z,15.93
2018-03-25T01:57:57.721Z,16.37
2018-03-25T02:00:25.996Z,13.53
2018-03-25T02:02:54.283Z,14.77
2018-03-25T02:05:22.514Z,15.17
2018-03-25T02:07:50.984Z,15.37
2018-03-25T02:10:19.208Z,14.33
2018-03-25T02:12:47.519Z,15.03
2018-03-25T02:15:15.823Z,15.10
2018-03-25T02:17:44.836Z,15.03
2018-03-25T02:20:13.108Z,16.07
2018-03-25T02:22:41.390Z,15.27
2018-03-25T02:25:09.686Z,14.48
2018-03-25T02:27:38.059Z,15.43
2018-03-25T02:30:06.301Z,15.60
2018-03-25T02:32:34.829Z,15.23
2018-03-25T02:35:03.096Z,16.80
2018-03-25T02:37:31.381Z,16.37
2018-03-25T02:39:59.690Z,15.80
2018-03-25T02:42:28.782Z,15.93
2018-03-25T02:44:57.075Z,15.77
2018-03-25T02:47:25.292Z,16.97
2018-03-25T02:49:53.555Z,17.17
2018-03-25T02:52:22.153Z,17.37
2018-03-25T02:54:50.443Z,17.13
2018-03-25T02:57:18.721Z,16.60
2018-03-25T02:59:48.609Z,16.30
2018-03-25T03:02:16.881Z,16.17
2018-03-25T03:04:45.118Z,15.20
2018-03-25T03:07:14.157Z,17.20
2018-03-25T03:09:43.217Z,17.43
2018-03-25T03:12:11.487Z,16.90
2018-03-25T03:14:40.504Z,16.90
2018-03-25T03:17:08.784Z,18.00
2018-03-25T03:19:37.055Z,17.50
2018-03-25T03:22:05.366Z,17.37
2018-03-25T03:24:33.629Z,16.27
2018-03-25T03:27:01.962Z,16.67
2018-03-25T03:29:31.011Z,17.13
2018-03-25T03:31:59.294Z,16.00
2018-03-25T03:34:27.564Z,17.33
2018-03-25T03:36:55.835Z,17.07
2018-03-25T03:39:24.104Z,16.33
2018-03-25T03:41:52.356Z,18.00
2018-03-25T03:44:20.666Z,16.07
2018-03-25T03:46:48.946Z,17.70
2018-03-25T03:49:17.222Z,16.00
2018-03-25T03:51:45.646Z,16.40
2018-03-25T03:54:13.906Z,16.47
2018-03-25T03:56:43.003Z,17.10
2018-03-25T03:59:12.142Z,16.70
2018-03-25T04:01:41.049Z,16.33
2018-03-25T04:04:09.288Z,17.13
2018-03-25T04:06:37.580Z,14.97
2018-03-25T04:09:05.881Z,17.27
2018-03-25T04:11:34.110Z,16.13
2018-03-25T04:14:02.419Z,16.60
2018-03-25T04:16:30.791Z,16.13
2018-03-25T04:18:59.074Z,16.92
2018-03-25T04:21:27.387Z,18.37
2018-03-25T04:23:55.646Z,14.83
2018-03-25T04:26:23.924Z,17.00
2018-03-25T04:28:52.217Z,15.47
2018-03-25T04:31:22.037Z,17.73
2018-03-25T04:33:50.301Z,16.30
2018-03-25T04:36:18.535Z,16.53
2018-03-25T04:38:46.815Z,16.23
2018-03-25T04:41:15.154Z,15.50
2018-03-25T04:43:44.184Z,17.30
2018-03-25T04:46:12.459Z,16.97
2018-03-25T04:48:40.708Z,17.83
2018-03-25T04:51:08.998Z,16.93
2018-03-25T04:53:37.290Z,16.50
2018-03-25T04:56:05.630Z,17.10
2018-03-25T04:58:33.921Z,16.40
2018-03-25T05:01:02.949Z,17.33
2018-03-25T05:03:31.230Z,17.00
2018-03-25T05:05:59.487Z,16.83
2018-03-25T05:08:27.753Z,16.63
2018-03-25T05:10:56.049Z,16.90
2018-03-25T05:13:24.297Z,18.63
2018-03-25T05:15:52.612Z,16.07
2018-03-25T05:18:20.936Z,18.30
2018-03-25T05:20:49.965Z,17.53
2018-03-25T05:23:18.249Z,19.63
2018-03-25T05:25:46.540Z,17.50
2018-03-25T05:28:14.821Z,18.40
2018-03-25T05:30:43.073Z,18.00
2018-03-25T05:33:11.352Z,17.47
2018-03-25T05:35:40.573Z,17.87
2018-03-25T05:38:08.799Z,16.97
2018-03-25T05:40:37.066Z,18.13
2018-03-25T05:43:05.334Z,17.17
2018-03-25T05:45:33.574Z,18.60
2018-03-25T05:48:01.877Z,17.00
2018-03-25T05:50:30.896Z,15.83
2018-03-25T05:52:59.176Z,24.07
2018-03-25T05:55:27.495Z,19.33
2018-03-25T05:57:55.753Z,18.30
2018-03-25T06:00:24.262Z,16.97
2018-03-25T06:02:52.571Z,17.57
2018-03-25T06:05:21.590Z,16.80
2018-03-25T06:07:49.841Z,15.97
2018-03-25T06:10:18.684Z,18.43
2018-03-25T06:12:46.958Z,17.07
2018-03-25T06:15:15.224Z,16.97
2018-03-25T06:17:43.511Z,17.10
2018-03-25T06:20:11.808Z,17.17
2018-03-25T06:22:40.846Z,16.50
2018-03-25T06:25:09.964Z,17.07
2018-03-25T06:27:38.247Z,18.17
2018-03-25T06:30:06.522Z,17.73
2018-03-25T06:32:34.780Z,17.67
2018-03-25T06:35:03.141Z,19.07
2018-03-25T06:37:31.458Z,17.60
2018-03-25T06:39:59.706Z,19.10
2018-03-25T06:42:28.015Z,17.63
2018-03-25T06:44:56.323Z,18.10
2018-03-25T06:47:25.386Z,18.97
2018-03-25T06:49:55.346Z,18.93
2018-03-25T06:52:23.596Z,18.13
2018-03-25T06:54:52.635Z,19.10
2018-03-25T06:57:21.033Z,18.83
2018-03-25T06:59:49.289Z,18.50
2018-03-25T07:02:17.534Z,19.03
2018-03-25T07:04:46.552Z,19.83
2018-03-25T07:07:15.655Z,19.63
2018-03-25T07:09:43.911Z,18.50
2018-03-25T07:12:12.147Z,18.60
2018-03-25T07:14:41.960Z,18.97
2018-03-25T07:17:11.774Z,18.20
2018-03-25T07:19:40.878Z,20.00
2018-03-25T07:22:09.953Z,18.63
2018-03-25T07:24:39.704Z,17.90
2018-03-25T07:27:08.767Z,18.98
2018-03-25T07:29:37.750Z,20.35
2018-03-25T07:32:06.037Z,18.80
2018-03-25T07:34:34.512Z,18.97
2018-03-25T07:37:02.896Z,18.13
2018-03-25T07:39:31.159Z,18.57
2018-03-25T07:41:59.496Z,17.80
2018-03-25T07:44:27.862Z,18.83
2018-03-25T07:46:56.155Z,18.80
2018-03-25T07:49:24.428Z,17.73
2018-03-25T07:51:52.734Z,17.97
2018-03-25T07:54:20.989Z,19.07
2018-03-25T07:56:49.280Z,19.70
2018-03-25T07:59:17.546Z,19.07
2018-03-25T08:01:45.847Z,18.03
2018-03-25T08:04:14.920Z,18.87
2018-03-25T08:06:43.197Z,18.93
2018-03-25T08:09:11.506Z,18.93
2018-03-25T08:11:39.763Z,17.73
2018-03-25T08:14:08.063Z,19.40
2018-03-25T08:16:36.364Z,19.17
2018-03-25T08:19:05.469Z,19.13
2018-03-25T08:21:33.848Z,19.17
2018-03-25T08:24:02.880Z,18.43
2018-03-25T08:26:31.250Z,18.63
2018-03-25T08:28:59.661Z,18.80
2018-03-25T08:31:27.974Z,19.67
2018-03-25T08:33:57.026Z,18.63
2018-03-25T08:36:26.204Z,18.35
2018-03-25T08:38:54.510Z,18.17
2018-03-25T08:41:22.765Z,19.37
2018-03-25T08:43:51.059Z,19.30
2018-03-25T08:46:19.386Z,18.17
2018-03-25T08:48:47.654Z,18.20
2018-03-25T08:51:15.920Z,19.80
2018-03-25T08:53:44.942Z,19.00
2018-03-25T08:56:13.198Z,19.43
2018-03-25T08:58:41.458Z,18.10
2018-03-25T09:01:10.571Z,19.23
2018-03-25T09:03:38.866Z,17.97
2018-03-25T09:06:07.148Z,19.17
2018-03-25T09:08:35.421Z,17.73
2018-03-25T09:11:03.693Z,17.13
2018-03-25T09:13:32.001Z,18.93
2018-03-25T09:16:00.274Z,17.50
2018-03-25T09:18:28.543Z,18.08
2018-03-25T09:20:57.151Z,18.62
2018-03-25T09:23:25.622Z,17.90
2018-03-25T09:25:53.883Z,17.90
2018-03-25T09:28:22.132Z,17.77
2018-03-25T09:30:50.393Z,18.90
2018-03-25T09:33:18.657Z,17.90
2018-03-25T09:35:47.017Z,17.73
2018-03-25T09:38:16.066Z,18.23
2018-03-25T09:40:44.374Z,19.00
2018-03-25T09:43:12.900Z,18.90
2018-03-25T09:45:41.144Z,19.40
2018-03-25T09:48:10.199Z,18.23
2018-03-25T09:50:38.542Z,17.47
2018-03-25T09:53:06.836Z,18.87
2018-03-25T09:55:35.121Z,17.87
2018-03-25T09:58:03.450Z,18.43
2018-03-25T10:00:37.355Z,18.50
2018-03-25T10:03:12.100Z,17.67
2018-03-25T10:05:41.104Z,17.73
2018-03-25T10:08:09.374Z,17.93
2018-03-25T10:10:37.898Z,19.23
2018-03-25T10:13:06.191Z,18.85
2018-03-25T10:15:34.487Z,18.77
2018-03-25T10:18:03.539Z,18.37
2018-03-25T10:20:31.977Z,18.30
2018-03-25T10:23:01.047Z,18.00
2018-03-25T10:25:29.312Z,19.13
2018-03-25T10:27:57.624Z,18.70
2018-03-25T10:30:25.950Z,21.67
2018-03-25T10:32:54.244Z,18.13
2018-03-25T10:35:22.534Z,19.27
2018-03-25T10:37:50.804Z,19.90
2018-03-25T10:40:19.109Z,17.43
2018-03-25T10:42:48.119Z,17.73
2018-03-25T10:45:16.434Z,18.87
2018-03-25T10:47:45.692Z,17.90
2018-03-25T10:50:14.002Z,18.47
2018-03-25T10:52:45.211Z,17.93
2018-03-25T10:55:13.559Z,18.33
2018-03-25T10:57:42.631Z,17.87
2018-03-25T11:00:10.906Z,18.83
2018-03-25T11:02:39.991Z,18.43
2018-03-25T11:05:08.235Z,18.27
2018-03-25T11:07:36.564Z,17.27
2018-03-25T11:10:04.974Z,18.83
2018-03-25T11:12:33.351Z,17.57
2018-03-25T11:15:01.653Z,19.40
2018-03-25T11:17:33.794Z,18.40
2018-03-25T11:20:02.113Z,17.83
2018-03-25T11:22:30.437Z,18.85
2018-03-25T11:24:59.582Z,17.07
2018-03-25T11:27:28.818Z,18.87
2018-03-25T11:29:57.957Z,17.40
2018-03-25T11:32:27.036Z,17.50
2018-03-25T11:34:57.319Z,17.67
2018-03-25T11:37:25.603Z,16.87
2018-03-25T11:39:53.991Z,19.17
2018-03-25T11:42:23.079Z,19.30
2018-03-25T11:44:52.248Z,18.70
2018-03-25T11:47:20.561Z,18.77
2018-03-25T11:49:49.616Z,19.50
2018-03-25T11:52:17.936Z,20.00
2018-03-25T11:54:47.921Z,19.83
2018-03-25T11:57:16.298Z,19.53
2018-03-25T11:59:45.446Z,18.80
2018-03-25T12:02:13.791Z,19.50
2018-03-25T12:04:42.068Z,18.93
2018-03-25T12:07:11.614Z,20.63
2018-03-25T12:09:40.127Z,19.93
2018-03-25T12:12:08.623Z,19.80
2018-03-25T12:14:36.917Z,18.90
2018-03-25T12:17:06.556Z,20.10
2018-03-25T12:19:34.876Z,20.83
2018-03-25T12:22:05.547Z,19.10
2018-03-25T12:24:33.841Z,21.47
2018-03-25T12:27:02.158Z,18.90
2018-03-25T12:29:30.515Z,20.70
2018-03-25T12:31:58.847Z,19.20
2018-03-25T12:34:28.693Z,21.37
2018-03-25T12:36:56.965Z,19.00
2018-03-25T12:39:25.288Z,21.20
2018-03-25T12:41:53.658Z,20.73
2018-03-25T12:44:21.957Z,20.27
2018-03-25T12:46:50.232Z,20.73
2018-03-25T12:49:19.316Z,20.23
2018-03-25T12:51:47.623Z,20.70
2018-03-25T12:54:16.679Z,20.23
2018-03-25T12:56:46.110Z,20.63
2018-03-25T12:59:15.196Z,21.37
2018-03-25T13:01:44.320Z,19.67
2018-03-25T13:04:13.680Z,21.70
2018-03-25T13:06:41.998Z,19.73
2018-03-25T13:09:11.025Z,20.07
2018-03-25T13:11:39.319Z,20.70
2018-03-25T13:14:08.935Z,20.30
2018-03-25T13:16:37.243Z,21.20
2018-03-25T13:19:06.394Z,20.40
2018-03-25T13:21:34.737Z,21.20
2018-03-25T13:24:03.410Z,20.17
2018-03-25T13:26:31.738Z,20.47
2018-03-25T13:29:00.056Z,19.90
2018-03-25T13:31:29.110Z,21.57
2018-03-25T13:33:57.417Z,20.30
2018-03-25T13:36:26.532Z,21.07
2018-03-25T13:38:55.762Z,19.83
2018-03-25T13:41:24.698Z,19.90
2018-03-25T13:43:54.517Z,19.73
2018-03-25T13:46:26.348Z,18.97
2018-03-25T13:48:54.628Z,19.87
2018-03-25T13:51:25.843Z,20.13
2018-03-25T13:53:54.154Z,20.10
2018-03-25T13:56:22.426Z,20.47
2018-03-25T13:58:50.674Z,20.42
2018-03-25T14:01:18.984Z,20.27
2018-03-25T14:03:48.396Z,20.67
2018-03-25T14:06:17.917Z,19.63
2018-03-25T14:08:46.202Z,20.23
2018-03-25T14:11:14.541Z,19.43
2018-03-25T14:13:42.824Z,19.00
2018-03-25T14:16:11.233Z,19.93
2018-03-25T14:18:41.162Z,19.83
2018-03-25T14:21:09.630Z,20.43
2018-03-25T14:23:38.661Z,20.17
2018-03-25T14:26:08.194Z,19.90
2018-03-25T14:28:36.472Z,19.93
2018-03-25T14:31:04.803Z,18.73
2018-03-25T14:33:33.125Z,20.80
2018-03-25T14:36:03.131Z,19.47
2018-03-25T14:38:31.619Z,19.77
2018-03-25T14:40:59.916Z,18.97
2018-03-25T14:43:30.143Z,20.47
2018-03-25T14:45:58.679Z,21.33
2018-03-25T14:48:27.068Z,19.83
2018-03-25T14:50:55.453Z,22.53
2018-03-25T14:53:23.725Z,21.17
2018-03-25T14:55:53.294Z,19.83
2018-03-25T14:58:21.573Z,20.10
2018-03-25T15:00:49.901Z,19.50
2018-03-25T15:03:18.923Z,20.10
2018-03-25T15:05:47.938Z,20.67
2018-03-25T15:08:16.358Z,20.67
2018-03-25T15:10:44.648Z,20.23
2018-03-25T15:13:13.812Z,19.97
2018-03-25T15:15:42.166Z,21.10
2018-03-25T15:18:11.738Z,20.80
2018-03-25T15:20:40.984Z,19.93
2018-03-25T15:23:09.422Z,19.90
2018-03-25T15:25:37.725Z,20.70
2018-03-25T15:28:06.058Z,22.20
2018-03-25T15:30:34.351Z,21.63
2018-03-25T15:33:04.205Z,20.57
2018-03-25T15:35:32.517Z,20.80
2018-03-25T15:38:04.712Z,20.80
2018-03-25T15:40:32.977Z,22.10
2018-03-25T15:43:01.248Z,20.90
2018-03-25T15:45:29.783Z,20.00
2018-03-25T15:47:58.311Z,21.10
2018-03-25T15:50:26.655Z,21.87
2018-03-25T15:52:55.055Z,21.80
2018-03-25T15:55:24.071Z,22.83
2018-03-25T15:57:53.143Z,20.67
2018-03-25T16:00:21.427Z,21.93
2018-03-25T16:02:49.812Z,20.30
2018-03-25T16:05:19.200Z,22.73
2018-03-25T16:07:47.500Z,23.10
2018-03-25T16:10:15.844Z,23.90
2018-03-25T16:12:44.218Z,21.30
2018-03-25T16:15:13.317Z,21.43
2018-03-25T16:17:41.648Z,21.20
2018-03-25T16:20:09.924Z,23.60
2018-03-25T16:22:38.193Z,21.27
2018-03-25T16:25:07.289Z,23.30
2018-03-25T16:27:35.582Z,22.80
2018-03-25T16:30:04.008Z,23.70
2018-03-25T16:32:32.314Z,21.40
2018-03-25T16:35:01.367Z,23.23
2018-03-25T16:37:29.759Z,23.90
2018-03-25T16:39:58.072Z,22.33
2018-03-25T16:42:27.103Z,23.90
2018-03-25T16:44:55.404Z,23.53
2018-03-25T16:47:23.728Z,23.53
2018-03-25T16:49:52.059Z,22.13
2018-03-25T16:52:21.160Z,21.63
2018-03-25T16:54:49.535Z,24.13
2018-03-25T16:57:17.848Z,22.03
2018-03-25T16:59:46.898Z,24.03
2018-03-25T17:02:15.314Z,22.03
2018-03-25T17:04:44.490Z,23.80
2018-03-25T17:07:12.753Z,25.17
2018-03-25T17:09:41.135Z,24.17
2018-03-25T17:12:09.407Z,23.93
2018-03-25T17:14:39.187Z,23.53
2018-03-25T17:17:07.640Z,25.13
2018-03-25T17:19:35.977Z,24.00
2018-03-25T17:22:05.820Z,23.90
2018-03-25T17:24:34.860Z,25.77
2018-03-25T17:27:03.136Z,24.80
2018-03-25T17:29:32.864Z,26.23
2018-03-25T17:32:01.179Z,26.77
2018-03-25T17:34:30.242Z,25.70
2018-03-25T17:36:59.268Z,26.70
2018-03-25T17:39:28.813Z,25.80
2018-03-25T17:41:57.156Z,26.57
2018-03-25T17:44:27.012Z,25.07
2018-03-25T17:46:56.156Z,24.97
2018-03-25T17:49:24.467Z,25.43
2018-03-25T17:51:52.879Z,26.63
2018-03-25T17:54:21.165Z,28.23
2018-03-25T17:56:49.665Z,29.43
2018-03-25T17:59:20.026Z,32.03
2018-03-25T18:01:48.357Z,33.27
2018-03-25T18:04:17.524Z,35.10
2018-03-25T18:06:46.711Z,38.13
2018-03-25T18:09:15.125Z,36.20
2018-03-25T18:11:44.531Z,38.53
2018-03-25T18:14:13.809Z,38.17
2018-03-25T18:16:42.077Z,36.83
2018-03-25T18:19:10.360Z,40.90
2018-03-25T18:21:38.682Z,39.97
2018-03-25T18:24:07.728Z,41.20
2018-03-25T18:26:36.026Z,40.12
2018-03-25T18:29:05.237Z,41.57
2018-03-25T18:31:33.916Z,42.93
2018-03-25T18:34:02.266Z,42.93
2018-03-25T18:36:31.489Z,41.87
2018-03-25T18:38:59.867Z,42.30
2018-03-25T18:41:28.185Z,41.20
2018-03-25T18:43:56.701Z,42.00
2018-03-25T18:46:25.464Z,43.53
2018-03-25T18:48:53.755Z,45.83
2018-03-25T18:51:22.180Z,46.27
2018-03-25T18:53:51.323Z,42.30
2018-03-25T18:56:19.772Z,42.87
2018-03-25T18:58:48.973Z,44.90
2018-03-25T19:01:17.305Z,47.80
2018-03-25T19:03:45.613Z,47.03
2018-03-25T19:06:14.948Z,44.23
2018-03-25T19:08:43.275Z,41.70
2018-03-25T19:11:11.833Z,42.10
2018-03-25T19:13:41.047Z,45.40
2018-03-25T19:16:09.454Z,46.40
2018-03-25T19:18:38.637Z,41.97
2018-03-25T19:21:08.758Z,44.70
2018-03-25T19:23:37.823Z,46.27
2018-03-25T19:26:06.453Z,45.27
2018-03-25T19:28:38.929Z,43.87
2018-03-25T19:31:08.361Z,47.15
2018-03-25T19:33:37.493Z,44.53
2018-03-25T19:36:06.468Z,42.93
2018-03-25T19:38:34.788Z,44.53
2018-03-25T19:41:03.466Z,48.43
2018-03-25T19:43:31.880Z,47.90
2018-03-25T19:46:00.277Z,48.63
2018-03-25T19:48:28.529Z,48.03
2018-03-25T19:50:56.821Z,48.70
2018-03-25T19:53:25.108Z,48.27
2018-03-25T19:55:53.377Z,48.05
2018-03-25T19:58:22.662Z,48.27
2018-03-25T20:00:51.057Z,48.73
2018-03-25T20:03:20.388Z,52.15
2018-03-25T20:05:49.530Z,50.00
2018-03-25T20:08:17.832Z,51.13
2018-03-25T20:10:46.125Z,52.28
2018-03-25T20:13:14.458Z,54.57
2018-03-25T20:15:42.737Z,52.73
2018-03-25T20:18:11.047Z,54.03
2018-03-25T20:20:39.340Z,52.90
2018-03-25T20:23:07.668Z,53.47
2018-03-25T20:25:35.976Z,56.07
2018-03-25T20:28:04.340Z,53.35
2018-03-25T20:30:32.664Z,54.13
2018-03-25T20:33:00.947Z,54.27
2018-03-25T20:35:30.590Z,54.10
2018-03-25T20:37:58.893Z,55.57
2018-03-25T20:40:27.411Z,56.78
2018-03-25T20:42:56.026Z,53.33
2018-03-25T20:45:24.416Z,55.13
2018-03-25T20:47:52.705Z,50.50
2018-03-25T20:50:20.996Z,53.17
2018-03-25T20:52:49.457Z,54.37
2018-03-25T20:55:17.749Z,53.27
2018-03-25T20:57:46.073Z,52.97
2018-03-25T21:00:14.368Z,54.30
2018-03-25T21:02:42.638Z,53.00
2018-03-25T21:05:10.988Z,54.97
2018-03-25T21:07:39.309Z,53.50
2018-03-25T21:10:07.634Z,52.23
2018-03-25T21:12:35.910Z,49.93
2018-03-25T21:15:04.249Z,53.13
2018-03-25T21:17:32.564Z,49.37
2018-03-25T21:20:00.788Z,51.40
2018-03-25T21:22:29.093Z,50.07
2018-03-25T21:24:57.397Z,48.47
2018-03-25T21:27:25.669Z,51.17
2018-03-25T21:29:53.987Z,45.03
2018-03-25T21:32:22.261Z,49.13
2018-03-25T21:34:50.560Z,50.20
2018-03-25T21:37:18.963Z,52.33
2018-03-25T21:39:47.560Z,49.27
2018-03-25T21:42:17.376Z,50.20
2018-03-25T21:44:45.623Z,49.27
2018-03-25T21:47:13.935Z,49.67
2018-03-25T21:49:43.012Z,49.60
2018-03-25T21:52:11.274Z,51.63
2018-03-25T21:54:39.577Z,50.63
2018-03-25T21:57:07.868Z,48.70
2018-03-25T21:59:37.734Z,51.27
2018-03-25T22:02:06.083Z,50.03
2018-03-25T22:04:34.269Z,50.87
2018-03-25T22:07:02.517Z,52.13
2018-03-25T22:09:32.350Z,52.27
2018-03-25T22:12:00.579Z,52.87
2018-03-25T22:14:28.925Z,50.73
2018-03-25T22:16:57.250Z,49.03
2018-03-25T22:19:26.249Z,50.00
2018-03-25T22:21:56.083Z,48.07
2018-03-25T22:24:24.418Z,48.47
2018-03-25T22:26:53.520Z,54.70
2018-03-25T22:29:21.788Z,52.80
2018-03-25T22:31:50.079Z,48.53
2018-03-25T22:34:22.973Z,49.87
2018-03-25T22:36:51.295Z,53.10
2018-03-25T22:39:19.529Z,53.27
2018-03-25T22:41:48.617Z,51.70
2018-03-25T22:44:17.636Z,51.10
2018-03-25T22:46:45.890Z,52.27
2018-03-25T22:49:14.161Z,51.93
2018-03-25T22:51:44.198Z,51.13
2018-03-25T22:54:12.524Z,52.87
2018-03-25T22:56:40.885Z,52.43
2018-03-25T22:59:09.190Z,53.40
2018-03-25T23:01:37.492Z,52.47
2018-03-25T23:04:07.051Z,52.87
2018-03-25T23:06:35.384Z,52.47
2018-03-25T23:09:03.696Z,53.13
2018-03-25T23:11:32.024Z,53.37
2018-03-25T23:14:01.034Z,54.80
2018-03-25T23:16:29.308Z,53.67
2018-03-25T23:18:57.630Z,54.43
2018-03-25T23:21:25.861Z,53.17
2018-03-25T23:23:54.202Z,56.73
2018-03-25T23:26:24.642Z,52.30
2018-03-25T23:28:54.157Z,52.27
2018-03-25T23:31:24.932Z,57.40
2018-03-25T23:33:53.247Z,56.87
2018-03-25T23:36:22.332Z,58.80
2018-03-25T23:38:53.553Z,58.27
2018-03-25T23:41:21.845Z,58.03
2018-03-25T23:43:50.134Z,61.92
2018-03-25T23:46:20.835Z,63.30
2018-03-25T23:48:49.291Z,61.73
2018-03-25T23:51:19.128Z,66.47
2018-03-25T23:53:47.405Z,64.90
2018-03-25T23:56:15.682Z,66.27
2018-03-25T23:58:43.999Z,66.27
